Caddo Mills, Texas
Current Conditions -  °F | °C
As of 9:15 AM on Wednesday 26 Nov 2014 (Local Time) from KGVT Reporting Station
Clear Clear  
Wind Chill: 52°   Ceiling: Unl
Heat Index: 52°   Visibility: 10mi
Dew Point: 30°   Wind: 9mph
Humidity: 44%   Direction: 250°WSW
Pressure: 30.11"   Gusts: NA
Location:  33.07°N, 96.23°W
Report Text: KGVT 261515Z AUTO 25008KT 10SM CLR 11/M01 A3011 RMK AO2
Loading
Personal Weather Stations






























Interactive Weather Map New forecast layout! Learn more

10-Day Weather Forecast

Advertisements
Track Severe Weather on mobile